sensor_id;sensor_type;location;lat;lon;timestamp;P1;durP1;ratioP1;P2;durP2;ratioP2
1206;SDS011;593;53.184;8.216;2022-09-20T00:03:28;2.90;;;0.60;;
1206;SDS011;593;53.184;8.216;2022-09-20T00:05:53;0.70;;;0.70;;
1206;SDS011;593;53.184;8.216;2022-09-20T00:08:19;3.50;;;0.70;;
1206;SDS011;593;53.184;8.216;2022-09-20T00:10:44;1.77;;;0.60;;
1206;SDS011;593;53.184;8.216;2022-09-20T00:13:11;2.37;;;0.70;;
1206;SDS011;593;53.184;8.216;2022-09-20T00:15:41;4.20;;;1.50;;
1206;SDS011;593;53.184;8.216;2022-09-20T00:18:08;1.77;;;0.70;;
1206;SDS011;593;53.184;8.216;2022-09-20T00:20:34;1.77;;;0.60;;
1206;SDS011;593;53.184;8.216;2022-09-20T00:22:59;4.40;;;0.80;;
1206;SDS011;593;53.184;8.216;2022-09-20T00:25:24;2.40;;;0.77;;
1206;SDS011;593;53.184;8.216;2022-09-20T00:27:50;1.30;;;1.20;;
1206;SDS011;593;53.184;8.216;2022-09-20T00:30:15;4.50;;;0.70;;
1206;SDS011;593;53.184;8.216;2022-09-20T00:32:40;3.10;;;0.80;;
1206;SDS011;593;53.184;8.216;2022-09-20T00:35:06;2.93;;;0.63;;
1206;SDS011;593;53.184;8.216;2022-09-20T00:37:36;6.13;;;0.60;;
1206;SDS011;593;53.184;8.216;2022-09-20T00:40:05;4.37;;;1.07;;
1206;SDS011;593;53.184;8.216;2022-09-20T00:42:33;5.50;;;0.60;;
1206;SDS011;593;53.184;8.216;2022-09-20T00:44:59;3.90;;;0.70;;
1206;SDS011;593;53.184;8.216;2022-09-20T00:53:05;3.50;;;0.77;;
1206;SDS011;593;53.184;8.216;2022-09-20T00:55:35;3.37;;;1.03;;
1206;SDS011;593;53.184;8.216;2022-09-20T00:58:06;3.03;;;0.67;;
1206;SDS011;593;53.184;8.216;2022-09-20T01:00:32;1.10;;;0.50;;
1206;SDS011;593;53.184;8.216;2022-09-20T01:02:59;2.70;;;0.80;;
1206;SDS011;593;53.184;8.216;2022-09-20T01:05:30;4.90;;;1.40;;
1206;SDS011;593;53.184;8.216;2022-09-20T01:07:55;0.93;;;0.70;;
1206;SDS011;593;53.184;8.216;2022-09-20T01:10:21;2.30;;;0.60;;
1206;SDS011;593;53.184;8.216;2022-09-20T01:12:47;0.90;;;0.70;;
1206;SDS011;593;53.184;8.216;2022-09-20T01:15:15;1.30;;;0.60;;
1206;SDS011;593;53.184;8.216;2022-09-20T01:17:43;2.90;;;0.70;;
1206;SDS011;593;53.184;8.216;2022-09-20T01:20:22;3.40;;;1.17;;
1206;SDS011;593;53.184;8.216;2022-09-20T01:28:09;1.23;;;0.60;;
1206;SDS011;593;53.184;8.216;2022-09-20T01:30:39;1.67;;;0.60;;
1206;SDS011;593;53.184;8.216;2022-09-20T01:35:43;1.73;;;0.60;;
1206;SDS011;593;53.184;8.216;2022-09-20T01:38:18;3.30;;;0.63;;
1206;SDS011;593;53.184;8.216;2022-09-20T01:46:23;1.10;;;0.70;;
1206;SDS011;593;53.184;8.216;2022-09-20T01:51:33;1.33;;;0.70;;
1206;SDS011;593;53.184;8.216;2022-09-20T02:08:07;1.00;;;0.70;;
1206;SDS011;593;53.184;8.216;2022-09-20T02:36:05;1.30;;;0.80;;
1206;SDS011;593;53.184;8.216;2022-09-20T02:46:22;1.35;;;0.63;;
1206;SDS011;593;53.184;8.216;2022-09-20T02:52:06;4.13;;;0.60;;
1206;SDS011;593;53.184;8.216;2022-09-20T02:57:25;2.00;;;0.63;;
1206;SDS011;593;53.184;8.216;2022-09-20T03:00:02;0.70;;;0.50;;
1206;SDS011;593;53.184;8.216;2022-09-20T03:02:30;2.90;;;0.57;;
1206;SDS011;593;53.184;8.216;2022-09-20T03:21:43;3.05;;;0.50;;
1206;SDS011;593;53.184;8.216;2022-09-20T03:27:04;1.90;;;0.75;;
1206;SDS011;593;53.184;8.216;2022-09-20T03:32:27;4.05;;;0.80;;
1206;SDS011;593;53.184;8.216;2022-09-20T03:38:10;2.33;;;0.60;;
1206;SDS011;593;53.184;8.216;2022-09-20T03:40:55;1.40;;;0.50;;
1206;SDS011;593;53.184;8.216;2022-09-20T03:46:21;4.30;;;0.43;;
1206;SDS011;593;53.184;8.216;2022-09-20T03:49:04;3.30;;;0.77;;
1206;SDS011;593;53.184;8.216;2022-09-20T03:51:40;2.53;;;0.65;;
1206;SDS011;593;53.184;8.216;2022-09-20T03:57:08;2.03;;;0.80;;
1206;SDS011;593;53.184;8.216;2022-09-20T04:04:58;4.20;;;0.60;;
1206;SDS011;593;53.184;8.216;2022-09-20T04:07:39;1.20;;;0.50;;
1206;SDS011;593;53.184;8.216;2022-09-20T04:21:14;1.90;;;0.50;;
1206;SDS011;593;53.184;8.216;2022-09-20T04:26:25;3.92;;;0.70;;
1206;SDS011;593;53.184;8.216;2022-09-20T04:34:18;2.65;;;0.80;;
1206;SDS011;593;53.184;8.216;2022-09-20T04:37:18;3.35;;;0.90;;
1206;SDS011;593;53.184;8.216;2022-09-20T04:39:56;2.58;;;0.60;;
1206;SDS011;593;53.184;8.216;2022-09-20T04:45:24;5.87;;;1.20;;
1206;SDS011;593;53.184;8.216;2022-09-20T04:51:10;1.47;;;0.60;;
1206;SDS011;593;53.184;8.216;2022-09-20T05:13:44;1.20;;;0.50;;
1206;SDS011;593;53.184;8.216;2022-09-20T05:24:55;2.15;;;0.52;;
1206;SDS011;593;53.184;8.216;2022-09-20T05:38:39;1.92;;;0.55;;
1206;SDS011;593;53.184;8.216;2022-09-20T05:55:13;1.30;;;0.50;;
1206;SDS011;593;53.184;8.216;2022-09-20T06:00:52;0.80;;;0.40;;
1206;SDS011;593;53.184;8.216;2022-09-20T06:03:45;0.90;;;0.60;;
1206;SDS011;593;53.184;8.216;2022-09-20T06:12:10;1.13;;;0.60;;
1206;SDS011;593;53.184;8.216;2022-09-20T06:15:24;0.70;;;0.65;;
1206;SDS011;593;53.184;8.216;2022-09-20T06:18:17;0.90;;;0.52;;
1206;SDS011;593;53.184;8.216;2022-09-20T06:21:08;2.97;;;0.90;;
1206;SDS011;593;53.184;8.216;2022-09-20T06:23:57;1.48;;;0.73;;
1206;SDS011;593;53.184;8.216;2022-09-20T06:26:26;3.00;;;0.70;;
1206;SDS011;593;53.184;8.216;2022-09-20T06:29:04;4.25;;;1.30;;
1206;SDS011;593;53.184;8.216;2022-09-20T06:31:35;0.98;;;0.63;;
1206;SDS011;593;53.184;8.216;2022-09-20T06:34:03;2.17;;;1.00;;
1206;SDS011;593;53.184;8.216;2022-09-20T06:36:33;2.03;;;0.77;;
1206;SDS011;593;53.184;8.216;2022-09-20T06:42:25;4.85;;;0.80;;
1206;SDS011;593;53.184;8.216;2022-09-20T06:44:51;3.13;;;0.80;;
1206;SDS011;593;53.184;8.216;2022-09-20T06:47:17;7.50;;;0.70;;
1206;SDS011;593;53.184;8.216;2022-09-20T06:49:42;3.00;;;1.30;;
1206;SDS011;593;53.184;8.216;2022-09-20T06:52:14;2.10;;;0.75;;
1206;SDS011;593;53.184;8.216;2022-09-20T06:54:41;2.70;;;0.80;;
1206;SDS011;593;53.184;8.216;2022-09-20T06:57:10;5.28;;;1.13;;
1206;SDS011;593;53.184;8.216;2022-09-20T06:59:38;2.88;;;0.90;;
1206;SDS011;593;53.184;8.216;2022-09-20T07:02:03;2.80;;;1.00;;
1206;SDS011;593;53.184;8.216;2022-09-20T07:04:29;2.57;;;0.70;;
1206;SDS011;593;53.184;8.216;2022-09-20T07:07:01;2.13;;;1.90;;
1206;SDS011;593;53.184;8.216;2022-09-20T07:09:28;1.03;;;0.63;;
1206;SDS011;593;53.184;8.216;2022-09-20T07:11:53;1.73;;;0.80;;
1206;SDS011;593;53.184;8.216;2022-09-20T07:14:23;2.43;;;0.70;;
1206;SDS011;593;53.184;8.216;2022-09-20T07:16:51;1.25;;;0.70;;
1206;SDS011;593;53.184;8.216;2022-09-20T07:19:20;1.50;;;1.17;;
1206;SDS011;593;53.184;8.216;2022-09-20T07:21:48;3.97;;;0.80;;
1206;SDS011;593;53.184;8.216;2022-09-20T07:24:13;1.37;;;0.60;;
1206;SDS011;593;53.184;8.216;2022-09-20T07:26:39;0.87;;;0.60;;
1206;SDS011;593;53.184;8.216;2022-09-20T07:29:18;7.57;;;0.70;;
1206;SDS011;593;53.184;8.216;2022-09-20T07:31:43;2.67;;;1.07;;
1206;SDS011;593;53.184;8.216;2022-09-20T07:34:09;6.50;;;0.90;;
1206;SDS011;593;53.184;8.216;2022-09-20T07:36:35;3.00;;;0.63;;
1206;SDS011;593;53.184;8.216;2022-09-20T07:39:01;2.17;;;0.73;;
1206;SDS011;593;53.184;8.216;2022-09-20T07:41:26;3.20;;;0.83;;
1206;SDS011;593;53.184;8.216;2022-09-20T07:43:54;1.98;;;0.80;;
1206;SDS011;593;53.184;8.216;2022-09-20T07:46:39;1.13;;;0.80;;
1206;SDS011;593;53.184;8.216;2022-09-20T07:49:05;3.17;;;1.17;;
1206;SDS011;593;53.184;8.216;2022-09-20T07:51:30;1.87;;;0.70;;
1206;SDS011;593;53.184;8.216;2022-09-20T07:53:56;2.47;;;0.90;;
1206;SDS011;593;53.184;8.216;2022-09-20T07:56:21;4.73;;;1.00;;
1206;SDS011;593;53.184;8.216;2022-09-20T07:58:47;2.20;;;0.70;;
1206;SDS011;593;53.184;8.216;2022-09-20T08:01:12;3.30;;;1.20;;
1206;SDS011;593;53.184;8.216;2022-09-20T08:03:38;2.87;;;0.80;;
1206;SDS011;593;53.184;8.216;2022-09-20T08:06:05;2.77;;;0.70;;
1206;SDS011;593;53.184;8.216;2022-09-20T08:08:36;1.27;;;0.70;;
1206;SDS011;593;53.184;8.216;2022-09-20T08:11:04;2.30;;;0.50;;
1206;SDS011;593;53.184;8.216;2022-09-20T08:13:34;2.58;;;0.70;;
1206;SDS011;593;53.184;8.216;2022-09-20T08:16:04;1.40;;;0.60;;
1206;SDS011;593;53.184;8.216;2022-09-20T08:18:32;2.30;;;0.63;;
1206;SDS011;593;53.184;8.216;2022-09-20T08:23:38;1.15;;;0.60;;
1206;SDS011;593;53.184;8.216;2022-09-20T08:26:08;4.50;;;1.73;;
1206;SDS011;593;53.184;8.216;2022-09-20T08:28:38;2.37;;;1.13;;
1206;SDS011;593;53.184;8.216;2022-09-20T08:31:09;1.60;;;0.70;;
1206;SDS011;593;53.184;8.216;2022-09-20T08:33:37;3.03;;;0.97;;
1206;SDS011;593;53.184;8.216;2022-09-20T08:36:03;3.50;;;1.00;;
1206;SDS011;593;53.184;8.216;2022-09-20T08:38:30;3.42;;;0.70;;
1206;SDS011;593;53.184;8.216;2022-09-20T08:40:57;1.03;;;0.80;;
1206;SDS011;593;53.184;8.216;2022-09-20T08:43:27;2.23;;;0.80;;
1206;SDS011;593;53.184;8.216;2022-09-20T08:45:59;3.93;;;0.90;;
1206;SDS011;593;53.184;8.216;2022-09-20T08:48:27;1.80;;;0.73;;
1206;SDS011;593;53.184;8.216;2022-09-20T08:50:57;6.63;;;0.90;;
1206;SDS011;593;53.184;8.216;2022-09-20T08:53:26;1.33;;;0.60;;
1206;SDS011;593;53.184;8.216;2022-09-20T08:55:54;1.60;;;0.57;;
1206;SDS011;593;53.184;8.216;2022-09-20T08:58:23;1.20;;;0.50;;
1206;SDS011;593;53.184;8.216;2022-09-20T09:00:49;1.57;;;0.60;;
1206;SDS011;593;53.184;8.216;2022-09-20T09:03:15;3.57;;;0.80;;
1206;SDS011;593;53.184;8.216;2022-09-20T09:05:43;0.93;;;0.63;;
1206;SDS011;593;53.184;8.216;2022-09-20T09:08:09;1.53;;;0.50;;
1206;SDS011;593;53.184;8.216;2022-09-20T09:13:52;1.33;;;0.50;;
1206;SDS011;593;53.184;8.216;2022-09-20T09:16:22;1.73;;;0.60;;
1206;SDS011;593;53.184;8.216;2022-09-20T09:18:49;0.80;;;0.50;;
1206;SDS011;593;53.184;8.216;2022-09-20T09:21:25;0.80;;;0.60;;
1206;SDS011;593;53.184;8.216;2022-09-20T09:24:05;1.90;;;0.97;;
1206;SDS011;593;53.184;8.216;2022-09-20T09:26:38;3.80;;;0.60;;
1206;SDS011;593;53.184;8.216;2022-09-20T09:31:51;1.73;;;0.50;;
1206;SDS011;593;53.184;8.216;2022-09-20T09:34:31;1.23;;;0.60;;
1206;SDS011;593;53.184;8.216;2022-09-20T09:37:02;1.17;;;0.60;;
1206;SDS011;593;53.184;8.216;2022-09-20T09:39:29;2.10;;;0.53;;
1206;SDS011;593;53.184;8.216;2022-09-20T09:41:56;1.73;;;0.50;;
1206;SDS011;593;53.184;8.216;2022-09-20T09:44:26;1.40;;;0.40;;
1206;SDS011;593;53.184;8.216;2022-09-20T09:46:53;0.60;;;0.40;;
1206;SDS011;593;53.184;8.216;2022-09-20T09:49:24;1.13;;;0.60;;
1206;SDS011;593;53.184;8.216;2022-09-20T09:54:19;0.60;;;0.50;;
1206;SDS011;593;53.184;8.216;2022-09-20T09:59:59;3.30;;;0.50;;
1206;SDS011;593;53.184;8.216;2022-09-20T10:05:12;1.20;;;0.40;;
1206;SDS011;593;53.184;8.216;2022-09-20T10:10:30;0.90;;;0.60;;
1206;SDS011;593;53.184;8.216;2022-09-20T10:16:07;5.20;;;0.70;;
1206;SDS011;593;53.184;8.216;2022-09-20T10:27:01;0.80;;;0.43;;
1206;SDS011;593;53.184;8.216;2022-09-20T10:35:22;1.47;;;0.50;;
1206;SDS011;593;53.184;8.216;2022-09-20T10:38:05;0.60;;;0.50;;
1206;SDS011;593;53.184;8.216;2022-09-20T10:44:46;1.60;;;0.43;;
1206;SDS011;593;53.184;8.216;2022-09-20T10:49:40;2.50;;;0.70;;
1206;SDS011;593;53.184;8.216;2022-09-20T11:00:22;2.87;;;0.50;;
1206;SDS011;593;53.184;8.216;2022-09-20T11:10:42;2.73;;;0.53;;
1206;SDS011;593;53.184;8.216;2022-09-20T11:16:17;1.00;;;0.50;;
1206;SDS011;593;53.184;8.216;2022-09-20T11:26:57;3.00;;;0.60;;
1206;SDS011;593;53.184;8.216;2022-09-20T11:32:11;3.60;;;0.60;;
1206;SDS011;593;53.184;8.216;2022-09-20T11:37:18;2.30;;;0.67;;
1206;SDS011;593;53.184;8.216;2022-09-20T11:42:16;1.90;;;0.60;;
1206;SDS011;593;53.184;8.216;2022-09-20T11:44:44;0.90;;;0.50;;
1206;SDS011;593;53.184;8.216;2022-09-20T11:52:16;1.53;;;0.60;;
1206;SDS011;593;53.184;8.216;2022-09-20T11:55:06;2.33;;;0.60;;
1206;SDS011;593;53.184;8.216;2022-09-20T11:57:57;1.33;;;0.60;;
1206;SDS011;593;53.184;8.216;2022-09-20T12:00:30;2.07;;;0.60;;
1206;SDS011;593;53.184;8.216;2022-09-20T12:02:59;1.30;;;0.63;;
1206;SDS011;593;53.184;8.216;2022-09-20T12:05:31;1.40;;;0.47;;
1206;SDS011;593;53.184;8.216;2022-09-20T12:08:02;1.23;;;0.50;;
1206;SDS011;593;53.184;8.216;2022-09-20T12:10:31;1.00;;;0.50;;
1206;SDS011;593;53.184;8.216;2022-09-20T12:13:15;1.30;;;0.53;;
1206;SDS011;593;53.184;8.216;2022-09-20T12:15:46;2.30;;;0.60;;
1206;SDS011;593;53.184;8.216;2022-09-20T12:18:30;3.33;;;0.60;;
1206;SDS011;593;53.184;8.216;2022-09-20T12:23:59;1.83;;;0.50;;
1206;SDS011;593;53.184;8.216;2022-09-20T12:28:56;0.77;;;0.50;;
1206;SDS011;593;53.184;8.216;2022-09-20T12:31:45;1.07;;;0.50;;
1206;SDS011;593;53.184;8.216;2022-09-20T12:36:41;0.80;;;0.50;;
1206;SDS011;593;53.184;8.216;2022-09-20T12:44:24;4.93;;;0.77;;
1206;SDS011;593;53.184;8.216;2022-09-20T12:46:57;0.60;;;0.40;;
1206;SDS011;593;53.184;8.216;2022-09-20T13:03:10;2.60;;;0.50;;
1206;SDS011;593;53.184;8.216;2022-09-20T13:08:30;1.27;;;0.50;;
1206;SDS011;593;53.184;8.216;2022-09-20T13:11:18;2.23;;;0.50;;
1206;SDS011;593;53.184;8.216;2022-09-20T13:13:50;3.60;;;0.70;;
1206;SDS011;593;53.184;8.216;2022-09-20T13:19:06;0.90;;;0.60;;
1206;SDS011;593;53.184;8.216;2022-09-20T13:21:42;2.67;;;0.50;;
1206;SDS011;593;53.184;8.216;2022-09-20T13:24:17;0.60;;;0.40;;
1206;SDS011;593;53.184;8.216;2022-09-20T13:26:45;1.73;;;0.60;;
1206;SDS011;593;53.184;8.216;2022-09-20T13:29:21;1.37;;;0.50;;
1206;SDS011;593;53.184;8.216;2022-09-20T13:31:51;1.80;;;0.50;;
1206;SDS011;593;53.184;8.216;2022-09-20T13:34:20;1.73;;;0.60;;
1206;SDS011;593;53.184;8.216;2022-09-20T13:36:49;2.67;;;0.77;;
1206;SDS011;593;53.184;8.216;2022-09-20T13:39:26;3.20;;;0.63;;
1206;SDS011;593;53.184;8.216;2022-09-20T13:41:59;3.70;;;0.50;;
1206;SDS011;593;53.184;8.216;2022-09-20T13:44:28;2.33;;;0.70;;
1206;SDS011;593;53.184;8.216;2022-09-20T13:46:58;2.83;;;0.60;;
1206;SDS011;593;53.184;8.216;2022-09-20T13:49:23;1.87;;;0.70;;
1206;SDS011;593;53.184;8.216;2022-09-20T13:51:49;0.70;;;0.50;;
1206;SDS011;593;53.184;8.216;2022-09-20T13:54:17;2.00;;;0.60;;
1206;SDS011;593;53.184;8.216;2022-09-20T13:56:48;2.40;;;0.50;;
1206;SDS011;593;53.184;8.216;2022-09-20T13:59:14;2.87;;;0.60;;
1206;SDS011;593;53.184;8.216;2022-09-20T14:01:41;0.77;;;0.40;;
1206;SDS011;593;53.184;8.216;2022-09-20T14:04:14;1.70;;;0.60;;
1206;SDS011;593;53.184;8.216;2022-09-20T14:06:41;3.50;;;0.77;;
1206;SDS011;593;53.184;8.216;2022-09-20T14:09:07;1.60;;;0.90;;
1206;SDS011;593;53.184;8.216;2022-09-20T14:11:42;3.00;;;1.17;;
1206;SDS011;593;53.184;8.216;2022-09-20T14:14:09;2.43;;;0.90;;
1206;SDS011;593;53.184;8.216;2022-09-20T14:16:38;1.47;;;0.80;;
1206;SDS011;593;53.184;8.216;2022-09-20T14:19:05;2.80;;;0.80;;
1206;SDS011;593;53.184;8.216;2022-09-20T14:21:32;3.17;;;0.60;;
1206;SDS011;593;53.184;8.216;2022-09-20T14:26:32;2.10;;;0.50;;
1206;SDS011;593;53.184;8.216;2022-09-20T14:31:54;2.00;;;0.73;;
1206;SDS011;593;53.184;8.216;2022-09-20T14:34:23;4.63;;;1.33;;
1206;SDS011;593;53.184;8.216;2022-09-20T14:36:48;4.57;;;0.60;;
1206;SDS011;593;53.184;8.216;2022-09-20T14:39:15;1.73;;;0.60;;
1206;SDS011;593;53.184;8.216;2022-09-20T14:41:46;1.60;;;0.70;;
1206;SDS011;593;53.184;8.216;2022-09-20T14:44:22;1.20;;;0.50;;
1206;SDS011;593;53.184;8.216;2022-09-20T14:46:55;2.60;;;0.63;;
1206;SDS011;593;53.184;8.216;2022-09-20T14:51:49;1.70;;;0.60;;
1206;SDS011;593;53.184;8.216;2022-09-20T14:54:21;2.27;;;0.67;;
1206;SDS011;593;53.184;8.216;2022-09-20T14:56:54;2.30;;;0.60;;
1206;SDS011;593;53.184;8.216;2022-09-20T14:59:25;4.87;;;0.93;;
1206;SDS011;593;53.184;8.216;2022-09-20T15:01:55;5.00;;;0.70;;
1206;SDS011;593;53.184;8.216;2022-09-20T15:04:22;2.30;;;0.80;;
1206;SDS011;593;53.184;8.216;2022-09-20T15:06:49;2.67;;;0.70;;
1206;SDS011;593;53.184;8.216;2022-09-20T15:09:16;1.27;;;0.50;;
1206;SDS011;593;53.184;8.216;2022-09-20T15:11:43;3.50;;;0.60;;
1206;SDS011;593;53.184;8.216;2022-09-20T15:14:08;2.43;;;0.70;;
1206;SDS011;593;53.184;8.216;2022-09-20T15:16:34;2.77;;;0.80;;
1206;SDS011;593;53.184;8.216;2022-09-20T15:18:59;2.73;;;0.60;;
1206;SDS011;593;53.184;8.216;2022-09-20T15:21:25;3.23;;;0.80;;
1206;SDS011;593;53.184;8.216;2022-09-20T15:23:50;1.20;;;0.60;;
1206;SDS011;593;53.184;8.216;2022-09-20T15:26:16;2.40;;;0.70;;
1206;SDS011;593;53.184;8.216;2022-09-20T15:28:45;3.17;;;0.70;;
1206;SDS011;593;53.184;8.216;2022-09-20T15:31:11;1.10;;;0.70;;
1206;SDS011;593;53.184;8.216;2022-09-20T15:33:38;0.90;;;0.60;;
1206;SDS011;593;53.184;8.216;2022-09-20T15:36:05;2.70;;;0.70;;
1206;SDS011;593;53.184;8.216;2022-09-20T15:38:32;3.70;;;0.90;;
1206;SDS011;593;53.184;8.216;2022-09-20T15:40:59;1.43;;;0.70;;
1206;SDS011;593;53.184;8.216;2022-09-20T15:43:27;4.07;;;1.17;;
1206;SDS011;593;53.184;8.216;2022-09-20T15:48:25;3.73;;;1.20;;
1206;SDS011;593;53.184;8.216;2022-09-20T15:53:36;2.73;;;0.80;;
1206;SDS011;593;53.184;8.216;2022-09-20T15:56:04;1.07;;;0.70;;
1206;SDS011;593;53.184;8.216;2022-09-20T15:58:42;4.00;;;0.60;;
1206;SDS011;593;53.184;8.216;2022-09-20T16:01:12;1.23;;;0.63;;
1206;SDS011;593;53.184;8.216;2022-09-20T16:03:42;1.43;;;0.70;;
1206;SDS011;593;53.184;8.216;2022-09-20T16:06:09;3.70;;;0.83;;
1206;SDS011;593;53.184;8.216;2022-09-20T16:08:37;1.80;;;1.00;;
1206;SDS011;593;53.184;8.216;2022-09-20T16:11:04;3.20;;;0.87;;
1206;SDS011;593;53.184;8.216;2022-09-20T16:13:31;1.60;;;0.70;;
1206;SDS011;593;53.184;8.216;2022-09-20T16:15:56;2.17;;;0.90;;
1206;SDS011;593;53.184;8.216;2022-09-20T16:18:24;2.80;;;0.60;;
1206;SDS011;593;53.184;8.216;2022-09-20T16:21:09;3.37;;;0.80;;
1206;SDS011;593;53.184;8.216;2022-09-20T16:23:37;2.63;;;0.60;;
1206;SDS011;593;53.184;8.216;2022-09-20T16:26:04;1.27;;;0.70;;
1206;SDS011;593;53.184;8.216;2022-09-20T16:28:40;1.13;;;0.70;;
1206;SDS011;593;53.184;8.216;2022-09-20T16:33:53;1.83;;;0.77;;
1206;SDS011;593;53.184;8.216;2022-09-20T16:36:18;1.37;;;0.80;;
1206;SDS011;593;53.184;8.216;2022-09-20T16:38:48;2.00;;;0.70;;
1206;SDS011;593;53.184;8.216;2022-09-20T16:41:13;3.17;;;0.83;;
1206;SDS011;593;53.184;8.216;2022-09-20T16:43:39;1.57;;;0.90;;
1206;SDS011;593;53.184;8.216;2022-09-20T16:46:05;0.97;;;0.70;;
1206;SDS011;593;53.184;8.216;2022-09-20T16:48:30;3.50;;;1.00;;
1206;SDS011;593;53.184;8.216;2022-09-20T16:50:57;2.93;;;1.03;;
1206;SDS011;593;53.184;8.216;2022-09-20T16:53:25;1.53;;;0.80;;
1206;SDS011;593;53.184;8.216;2022-09-20T16:55:52;4.33;;;0.90;;
1206;SDS011;593;53.184;8.216;2022-09-20T16:58:24;3.10;;;1.40;;
1206;SDS011;593;53.184;8.216;2022-09-20T17:00:52;3.70;;;0.90;;
1206;SDS011;593;53.184;8.216;2022-09-20T17:03:18;2.17;;;0.97;;
1206;SDS011;593;53.184;8.216;2022-09-20T17:05:43;1.43;;;0.70;;
1206;SDS011;593;53.184;8.216;2022-09-20T17:08:08;1.17;;;0.83;;
1206;SDS011;593;53.184;8.216;2022-09-20T17:10:34;1.47;;;0.70;;
1206;SDS011;593;53.184;8.216;2022-09-20T17:13:00;3.13;;;1.03;;
1206;SDS011;593;53.184;8.216;2022-09-20T17:15:26;2.13;;;0.90;;
1206;SDS011;593;53.184;8.216;2022-09-20T17:17:52;3.37;;;0.90;;
1206;SDS011;593;53.184;8.216;2022-09-20T17:20:17;1.63;;;0.93;;
1206;SDS011;593;53.184;8.216;2022-09-20T17:22:43;2.50;;;1.13;;
1206;SDS011;593;53.184;8.216;2022-09-20T17:25:08;1.70;;;1.20;;
1206;SDS011;593;53.184;8.216;2022-09-20T17:27:33;1.47;;;0.80;;
1206;SDS011;593;53.184;8.216;2022-09-20T17:30:03;3.23;;;1.47;;
1206;SDS011;593;53.184;8.216;2022-09-20T17:32:30;2.47;;;1.10;;
1206;SDS011;593;53.184;8.216;2022-09-20T17:34:55;1.30;;;0.87;;
1206;SDS011;593;53.184;8.216;2022-09-20T17:37:21;2.00;;;0.80;;
1206;SDS011;593;53.184;8.216;2022-09-20T17:39:46;3.10;;;0.77;;
1206;SDS011;593;53.184;8.216;2022-09-20T17:42:11;1.77;;;1.10;;
1206;SDS011;593;53.184;8.216;2022-09-20T17:44:37;1.30;;;0.80;;
1206;SDS011;593;53.184;8.216;2022-09-20T17:47:02;1.30;;;0.70;;
1206;SDS011;593;53.184;8.216;2022-09-20T17:49:28;3.97;;;0.90;;
1206;SDS011;593;53.184;8.216;2022-09-20T17:51:54;4.30;;;1.20;;
1206;SDS011;593;53.184;8.216;2022-09-20T17:54:22;1.33;;;0.90;;
1206;SDS011;593;53.184;8.216;2022-09-20T17:56:48;1.70;;;1.27;;
1206;SDS011;593;53.184;8.216;2022-09-20T17:59:16;2.57;;;1.10;;
1206;SDS011;593;53.184;8.216;2022-09-20T18:01:43;3.00;;;2.07;;
1206;SDS011;593;53.184;8.216;2022-09-20T18:04:10;2.50;;;2.30;;
1206;SDS011;593;53.184;8.216;2022-09-20T18:06:54;3.67;;;1.87;;
1206;SDS011;593;53.184;8.216;2022-09-20T18:09:20;2.27;;;2.07;;
1206;SDS011;593;53.184;8.216;2022-09-20T18:11:49;2.90;;;2.30;;
1206;SDS011;593;53.184;8.216;2022-09-20T18:14:17;3.40;;;2.83;;
1206;SDS011;593;53.184;8.216;2022-09-20T18:16:44;4.33;;;3.60;;
1206;SDS011;593;53.184;8.216;2022-09-20T18:19:10;4.23;;;3.83;;
1206;SDS011;593;53.184;8.216;2022-09-20T18:21:38;3.50;;;3.20;;
1206;SDS011;593;53.184;8.216;2022-09-20T18:24:05;3.93;;;3.50;;
1206;SDS011;593;53.184;8.216;2022-09-20T18:26:31;6.67;;;2.77;;
1206;SDS011;593;53.184;8.216;2022-09-20T18:29:02;3.57;;;2.90;;
1206;SDS011;593;53.184;8.216;2022-09-20T18:31:49;3.57;;;2.97;;
1206;SDS011;593;53.184;8.216;2022-09-20T18:34:20;3.30;;;3.00;;
1206;SDS011;593;53.184;8.216;2022-09-20T18:36:51;3.53;;;2.37;;
1206;SDS011;593;53.184;8.216;2022-09-20T18:39:22;2.90;;;2.23;;
1206;SDS011;593;53.184;8.216;2022-09-20T18:41:49;2.60;;;2.40;;
1206;SDS011;593;53.184;8.216;2022-09-20T18:44:15;2.53;;;2.33;;
1206;SDS011;593;53.184;8.216;2022-09-20T18:46:42;3.30;;;3.00;;
1206;SDS011;593;53.184;8.216;2022-09-20T18:49:08;3.90;;;2.43;;
1206;SDS011;593;53.184;8.216;2022-09-20T18:51:37;3.70;;;3.23;;
1206;SDS011;593;53.184;8.216;2022-09-20T18:54:03;4.07;;;3.70;;
1206;SDS011;593;53.184;8.216;2022-09-20T18:56:29;3.40;;;3.10;;
1206;SDS011;593;53.184;8.216;2022-09-20T19:01:42;2.30;;;2.20;;
1206;SDS011;593;53.184;8.216;2022-09-20T19:07:20;2.95;;;2.72;;
1206;SDS011;593;53.184;8.216;2022-09-20T19:12:32;5.80;;;4.27;;
1206;SDS011;593;53.184;8.216;2022-09-20T19:17:40;2.70;;;2.57;;
1206;SDS011;593;53.184;8.216;2022-09-20T19:20:15;3.55;;;3.35;;
1206;SDS011;593;53.184;8.216;2022-09-20T19:23:09;3.93;;;3.63;;
1206;SDS011;593;53.184;8.216;2022-09-20T19:25:52;3.47;;;3.17;;
1206;SDS011;593;53.184;8.216;2022-09-20T19:28:39;4.60;;;3.60;;
1206;SDS011;593;53.184;8.216;2022-09-20T19:31:04;3.70;;;3.50;;
1206;SDS011;593;53.184;8.216;2022-09-20T19:33:30;4.17;;;3.20;;
1206;SDS011;593;53.184;8.216;2022-09-20T19:35:55;6.23;;;3.47;;
1206;SDS011;593;53.184;8.216;2022-09-20T19:47:12;4.93;;;4.63;;
1206;SDS011;593;53.184;8.216;2022-09-20T19:49:55;4.33;;;3.97;;
1206;SDS011;593;53.184;8.216;2022-09-20T19:52:32;4.47;;;3.90;;
1206;SDS011;593;53.184;8.216;2022-09-20T19:54:58;4.40;;;4.05;;
1206;SDS011;593;53.184;8.216;2022-09-20T19:57:34;6.03;;;5.43;;
1206;SDS011;593;53.184;8.216;2022-09-20T20:00:06;5.20;;;4.70;;
1206;SDS011;593;53.184;8.216;2022-09-20T20:02:36;5.50;;;5.10;;
1206;SDS011;593;53.184;8.216;2022-09-20T20:05:02;7.33;;;6.40;;
1206;SDS011;593;53.184;8.216;2022-09-20T20:07:28;4.97;;;4.57;;
1206;SDS011;593;53.184;8.216;2022-09-20T20:10:14;5.83;;;5.23;;
1206;SDS011;593;53.184;8.216;2022-09-20T20:12:51;6.17;;;5.57;;
1206;SDS011;593;53.184;8.216;2022-09-20T20:15:43;7.82;;;5.60;;
1206;SDS011;593;53.184;8.216;2022-09-20T20:18:27;6.40;;;5.68;;
1206;SDS011;593;53.184;8.216;2022-09-20T20:21:01;5.90;;;5.30;;
1206;SDS011;593;53.184;8.216;2022-09-20T20:23:43;7.07;;;5.32;;
1206;SDS011;593;53.184;8.216;2022-09-20T20:26:31;5.53;;;5.13;;
1206;SDS011;593;53.184;8.216;2022-09-20T20:28:57;6.80;;;5.33;;
1206;SDS011;593;53.184;8.216;2022-09-20T20:31:22;6.40;;;5.90;;
1206;SDS011;593;53.184;8.216;2022-09-20T20:33:47;6.03;;;5.10;;
1206;SDS011;593;53.184;8.216;2022-09-20T20:36:14;6.47;;;5.90;;
1206;SDS011;593;53.184;8.216;2022-09-20T20:38:41;5.50;;;5.00;;
1206;SDS011;593;53.184;8.216;2022-09-20T20:41:11;7.80;;;6.53;;
1206;SDS011;593;53.184;8.216;2022-09-20T20:43:39;8.00;;;5.57;;
1206;SDS011;593;53.184;8.216;2022-09-20T20:46:07;6.60;;;5.90;;
1206;SDS011;593;53.184;8.216;2022-09-20T20:48:34;6.55;;;5.32;;
1206;SDS011;593;53.184;8.216;2022-09-20T20:51:07;12.15;;;5.32;;
1206;SDS011;593;53.184;8.216;2022-09-20T20:53:38;6.15;;;5.55;;
1206;SDS011;593;53.184;8.216;2022-09-20T20:56:06;4.75;;;4.40;;
1206;SDS011;593;53.184;8.216;2022-09-20T20:58:34;4.47;;;4.18;;
1206;SDS011;593;53.184;8.216;2022-09-20T21:03:37;5.53;;;5.00;;
1206;SDS011;593;53.184;8.216;2022-09-20T21:06:05;5.43;;;5.03;;
1206;SDS011;593;53.184;8.216;2022-09-20T21:08:34;8.10;;;5.20;;
1206;SDS011;593;53.184;8.216;2022-09-20T21:11:02;5.30;;;4.90;;
1206;SDS011;593;53.184;8.216;2022-09-20T21:13:30;4.70;;;4.20;;
1206;SDS011;593;53.184;8.216;2022-09-20T21:16:03;5.93;;;4.65;;
1206;SDS011;593;53.184;8.216;2022-09-20T21:18:33;6.18;;;5.55;;
1206;SDS011;593;53.184;8.216;2022-09-20T21:21:00;5.43;;;4.95;;
1206;SDS011;593;53.184;8.216;2022-09-20T21:23:27;5.32;;;4.93;;
1206;SDS011;593;53.184;8.216;2022-09-20T21:26:00;6.57;;;4.28;;
1206;SDS011;593;53.184;8.216;2022-09-20T21:28:32;4.75;;;4.35;;
1206;SDS011;593;53.184;8.216;2022-09-20T21:30:59;5.13;;;4.13;;
1206;SDS011;593;53.184;8.216;2022-09-20T21:33:24;4.40;;;4.03;;
1206;SDS011;593;53.184;8.216;2022-09-20T21:35:50;4.67;;;4.27;;
1206;SDS011;593;53.184;8.216;2022-09-20T21:38:16;5.20;;;4.70;;
1206;SDS011;593;53.184;8.216;2022-09-20T21:40:42;4.20;;;3.90;;
1206;SDS011;593;53.184;8.216;2022-09-20T21:43:07;4.40;;;4.00;;
1206;SDS011;593;53.184;8.216;2022-09-20T21:45:33;4.80;;;4.40;;
1206;SDS011;593;53.184;8.216;2022-09-20T21:47:58;4.20;;;3.90;;